Time;durP1;ratioP1;P1;durP2;ratioP2;P2;SDS_P1;SDS_P2;PMS_P1;PMS_P2;Temp;Humidity;BMP_temperature;BMP_pressure;BME280_temperature;BME280_humidity;BME280_pressure;Samples;Min_cycle;Max_cycle;Signal;HPM_P1;HPM_P2
2023/06/07 00:01:08;;;;;;;17.60;8.20;;;;;;;25.03;34.76;100529.29;108309;1251;72643;-66
2023/06/07 00:03:38;;;;;;;13.80;7.50;;;;;;;25.08;34.66;100532.45;108359;1251;61697;-67
2023/06/07 00:06:08;;;;;;;16.70;7.90;;;;;;;24.82;35.13;100532.09;108147;1251;60014;-66
2023/06/07 00:08:38;;;;;;;15.00;8.40;;;;;;;24.57;35.54;100528.08;108299;1252;72392;-67
2023/06/07 00:11:10;;;;;;;14.60;8.20;;;;;;;24.64;35.44;100529.29;108278;1251;70290;-67
2023/06/07 00:13:37;;;;;;;16.90;8.90;;;;;;;24.41;35.79;100525.50;108216;1251;71327;-68
2023/06/07 00:16:06;;;;;;;13.60;8.20;;;;;;;24.10;36.40;100531.84;108232;1251;60431;-67
2023/06/07 00:18:33;;;;;;;14.40;7.60;;;;;;;24.39;36.08;100527.30;108379;1251;60360;-67
2023/06/07 00:21:08;;;;;;;10.20;7.60;;;;;;;24.44;35.92;100529.02;108230;1251;73980;-67
2023/06/07 00:23:35;;;;;;;12.30;8.40;;;;;;;24.29;36.09;100529.79;108279;1251;69991;-66
2023/06/07 00:26:02;;;;;;;18.40;8.40;;;;;;;24.17;36.46;100529.80;108318;1256;71436;-66
2023/06/07 00:28:30;;;;;;;12.60;8.10;;;;;;;23.80;37.05;100534.23;108371;1251;61966;-65
2023/06/07 00:30:57;;;;;;;10.70;6.50;;;;;;;23.89;36.97;100534.55;108310;1251;60290;-66
2023/06/07 00:33:34;;;;;;;15.40;7.90;;;;;;;23.78;36.98;100534.26;108262;1251;72642;-66
2023/06/07 00:36:01;;;;;;;13.00;8.10;;;;;;;23.70;37.23;100535.78;108341;1251;69980;-66
2023/06/07 00:38:28;;;;;;;11.40;8.10;;;;;;;23.65;37.36;100534.63;108308;1251;71608;-65
2023/06/07 00:40:58;;;;;;;14.30;8.90;;;;;;;23.58;37.57;100534.50;108257;1251;61673;-66
2023/06/07 00:43:26;;;;;;;14.30;7.20;;;;;;;23.56;37.67;100532.52;108294;1251;60303;-67
2023/06/07 00:45:53;;;;;;;16.60;8.10;;;;;;;23.95;37.17;100532.42;108270;1251;73865;-66
2023/06/07 00:48:23;;;;;;;18.60;8.00;;;;;;;23.90;37.12;100531.96;108237;1251;68738;-68
2023/06/07 00:50:51;;;;;;;13.40;7.40;;;;;;;24.24;36.60;100528.27;108310;1256;71439;-66
2023/06/07 00:53:18;;;;;;;16.90;8.80;;;;;;;24.33;36.34;100532.32;108198;1253;60458;-66
2023/06/07 00:55:46;;;;;;;11.90;8.00;;;;;;;24.19;36.70;100529.39;108185;1251;60498;-67
2023/06/07 00:58:15;;;;;;;15.10;8.30;;;;;;;23.98;37.04;100528.04;108409;1251;72582;-68
2023/06/07 01:00:43;;;;;;;14.00;8.20;;;;;;;24.12;36.86;100522.84;108290;1251;70167;-67
2023/06/07 01:03:11;;;;;;;12.80;6.70;;;;;;;24.23;36.76;100525.11;108230;1251;72636;-67
2023/06/07 01:05:41;;;;;;;16.90;8.80;;;;;;;24.27;36.58;100524.44;108202;1251;60441;-67
2023/06/07 01:08:09;;;;;;;13.20;8.60;;;;;;;24.19;36.64;100526.75;108179;1251;60480;-67
2023/06/07 01:10:36;;;;;;;14.90;8.50;;;;;;;24.08;36.87;100528.93;108054;1251;72938;-68
2023/06/07 01:13:11;;;;;;;19.90;8.20;;;;;;;24.10;36.83;100528.95;108145;1251;69950;-67
2023/06/07 01:15:38;;;;;;;18.00;8.30;;;;;;;24.17;36.83;100531.27;108090;1251;71949;-66
2023/06/07 01:18:09;;;;;;;15.00;7.90;;;;;;;24.13;37.03;100528.45;108084;1251;61870;-66
2023/06/07 01:20:37;;;;;;;14.60;7.90;;;;;;;24.43;36.62;100528.70;108193;1251;60313;-67
2023/06/07 01:23:05;;;;;;;15.70;7.50;;;;;;;24.38;36.66;100527.57;108179;1251;73942;-67
2023/06/07 01:25:33;;;;;;;17.60;9.00;;;;;;;24.28;36.52;100529.48;108258;1251;71239;-66
2023/06/07 01:28:01;;;;;;;15.30;8.30;;;;;;;23.55;37.66;100529.37;108265;1251;72314;-66
2023/06/07 01:30:31;;;;;;;13.20;7.30;;;;;;;23.56;37.75;100527.66;108234;1251;61589;-66
2023/06/07 01:33:03;;;;;;;15.90;8.80;;;;;;;22.73;39.02;100533.96;108421;1250;60260;-66
2023/06/07 01:35:31;;;;;;;14.30;8.70;;;;;;;22.58;39.39;100533.42;108472;1251;72674;-65
2023/06/07 01:37:59;;;;;;;16.90;8.80;;;;;;;22.63;39.46;100530.73;108263;1251;68871;-66
2023/06/07 01:40:27;;;;;;;13.60;8.50;;;;;;;22.69;39.51;100533.58;108245;1259;73545;-65
2023/06/07 01:42:54;;;;;;;12.20;7.70;;;;;;;22.62;39.80;100534.16;108192;1253;62253;-67
2023/06/07 01:45:23;;;;;;;17.00;7.70;;;;;;;22.60;39.65;100532.02;108416;1250;59849;-66
2023/06/07 01:47:50;;;;;;;15.50;8.40;;;;;;;22.73;39.57;100534.39;108369;1251;73107;-68
2023/06/07 01:50:23;;;;;;;20.30;8.60;;;;;;;22.96;39.28;100531.59;108383;1250;69957;-66
2023/06/07 01:52:50;;;;;;;14.70;8.10;;;;;;;23.05;39.14;100533.71;108302;1254;72325;-66
2023/06/07 01:55:18;;;;;;;16.90;9.00;;;;;;;23.12;39.19;100528.83;108208;1251;63638;-66
2023/06/07 01:58:07;;;;;;;13.00;8.20;;;;;;;22.94;39.56;100527.83;108329;1251;59084;-66
2023/06/07 02:00:48;;;;;;;16.20;8.70;;;;;;;22.88;39.52;100534.61;108218;1251;73852;-67
2023/06/07 02:03:29;;;;;;;14.60;8.10;;;;;;;22.76;39.80;100531.80;108328;1251;68997;-67
2023/06/07 02:06:01;;;;;;;19.20;8.90;;;;;;;22.90;39.60;100527.45;108126;1258;72676;-65
2023/06/07 02:08:59;;;;;;;15.60;8.50;;;;;;;22.91;39.57;100527.20;108288;1251;61685;-67
2023/06/07 02:11:26;;;;;;;16.60;7.70;;;;;;;22.97;39.33;100527.93;108233;1251;60415;-68
2023/06/07 02:13:53;;;;;;;14.50;8.30;;;;;;;22.81;39.65;100524.01;108154;1250;72716;-66
2023/06/07 02:16:35;;;;;;;17.00;8.40;;;;;;;22.81;39.72;100527.92;108356;1250;69926;-66
2023/06/07 02:19:07;;;;;;;13.60;7.80;;;;;;;22.77;39.98;100524.20;108331;1256;71585;-67
2023/06/07 02:21:39;;;;;;;18.60;8.20;;;;;;;22.73;40.14;100532.02;108302;1256;60402;-66
2023/06/07 02:24:06;;;;;;;19.20;9.00;;;;;;;22.89;39.94;100528.07;108320;1251;60341;-67
2023/06/07 02:26:36;;;;;;;12.00;7.00;;;;;;;22.89;39.88;100529.08;108234;1251;73994;-67
2023/06/07 02:29:04;;;;;;;13.20;8.00;;;;;;;23.10;39.47;100533.48;108263;1251;70440;-66
2023/06/07 02:31:34;;;;;;;17.60;8.50;;;;;;;23.20;39.50;100530.87;108359;1251;72741;-66
2023/06/07 02:34:02;;;;;;;16.30;8.60;;;;;;;23.16;39.38;100530.83;108336;1251;60367;-67
2023/06/07 02:36:33;;;;;;;15.60;7.90;;;;;;;23.04;39.73;100530.23;108202;1250;60313;-67
2023/06/07 02:39:03;;;;;;;14.00;7.50;;;;;;;23.08;39.66;100530.11;108245;1251;73749;-67
2023/06/07 02:41:32;;;;;;;21.10;9.00;;;;;;;22.72;40.32;100532.66;108356;1251;68970;-67
2023/06/07 02:44:00;;;;;;;16.00;9.10;;;;;;;23.37;39.85;100529.78;108215;1250;72445;-66
2023/06/07 02:46:27;;;;;;;16.40;9.20;;;;;;;23.39;39.83;100529.59;108320;1251;60456;-68
2023/06/07 02:48:54;;;;;;;15.20;9.70;;;;;;;23.78;39.21;100523.84;108386;1251;60283;-68
2023/06/07 02:51:26;;;;;;;11.80;8.80;;;;;;;23.60;39.93;100528.38;108338;1251;72554;-66
2023/06/07 02:53:54;;;;;;;16.30;8.80;;;;;;;23.50;40.04;100524.57;108161;1251;70421;-66
2023/06/07 02:56:23;;;;;;;19.00;8.70;;;;;;;23.67;40.00;100524.06;108236;1253;72692;-67
2023/06/07 02:58:50;;;;;;;17.80;8.40;;;;;;;24.02;39.36;100527.46;108232;1251;61905;-67
2023/06/07 03:01:19;;;;;;;20.20;8.10;;;;;;;24.21;39.08;100520.58;108128;1252;60287;-66
2023/06/07 03:03:49;;;;;;;13.60;7.80;;;;;;;24.57;38.74;100518.67;108128;1254;73818;-67
2023/06/07 03:06:16;;;;;;;14.00;8.50;;;;;;;24.84;38.33;100521.83;108154;1254;69571;-67
2023/06/07 03:08:44;;;;;;;12.70;8.30;;;;;;;24.56;38.65;100520.83;108110;1253;71377;-67
2023/06/07 03:11:13;;;;;;;16.30;8.70;;;;;;;24.58;38.83;100515.55;108164;1254;61699;-67
2023/06/07 03:13:43;;;;;;;19.10;10.00;;;;;;;24.88;38.21;100515.86;108147;1253;60405;-68
2023/06/07 03:16:15;;;;;;;16.40;9.80;;;;;;;25.11;37.92;100515.11;108191;1253;73858;-68
2023/06/07 03:18:50;;;;;;;13.70;8.10;;;;;;;25.06;37.98;100516.59;108161;1253;68539;-67
2023/06/07 03:21:17;;;;;;;17.00;9.20;;;;;;;25.23;37.56;100521.55;108014;1252;73123;-67
2023/06/07 03:23:49;;;;;;;14.50;8.30;;;;;;;25.47;37.44;100516.64;108151;1256;60803;-67
2023/06/07 03:26:17;;;;;;;19.60;10.80;;;;;;;25.66;36.86;100517.04;108210;1251;60438;-67
2023/06/07 03:28:44;;;;;;;16.10;9.90;;;;;;;25.83;36.62;100522.05;108186;1251;74450;-68
2023/06/07 03:31:12;;;;;;;18.40;9.80;;;;;;;25.96;36.82;100530.20;108298;1251;69366;-69
2023/06/07 03:33:56;;;;;;;23.20;11.90;;;;;;;26.14;36.79;100523.77;108307;1251;71420;-67
2023/06/07 03:36:28;;;;;;;17.10;11.10;;;;;;;26.16;36.63;100524.30;108211;1254;61652;-67
2023/06/07 03:39:00;;;;;;;16.90;9.10;;;;;;;25.78;37.19;100521.06;108291;1251;60312;-67
2023/06/07 03:41:27;;;;;;;16.80;10.90;;;;;;;26.12;36.46;100521.58;108219;1251;73821;-68
2023/06/07 03:43:56;;;;;;;19.70;10.40;;;;;;;26.23;36.59;100523.86;108254;1251;68927;-68
2023/06/07 03:46:24;;;;;;;15.60;8.40;;;;;;;26.53;35.60;100526.68;108312;1254;72725;-67
2023/06/07 03:48:54;;;;;;;13.00;7.20;;;;;;;26.68;34.54;100521.06;108181;1251;60442;-69
2023/06/07 03:51:22;;;;;;;20.00;9.80;;;;;;;26.72;34.88;100521.00;108287;1251;60354;-68
2023/06/07 03:53:52;;;;;;;21.00;9.60;;;;;;;26.71;34.87;100522.04;108235;1251;74989;-66
2023/06/07 03:56:21;;;;;;;18.40;9.20;;;;;;;26.69;34.74;100520.77;108166;1251;70123;-67
2023/06/07 03:58:49;;;;;;;21.10;10.00;;;;;;;26.59;34.75;100521.79;108309;1254;71352;-67
2023/06/07 04:01:18;;;;;;;17.50;9.90;;;;;;;26.84;34.74;100525.42;108359;1254;62199;-68
2023/06/07 04:03:45;;;;;;;15.90;9.90;;;;;;;26.91;34.75;100521.52;108338;1251;60506;-67
2023/06/07 04:06:14;;;;;;;19.40;11.40;;;;;;;26.51;35.33;100521.31;108228;1251;73820;-67
2023/06/07 04:08:42;;;;;;;19.00;10.90;;;;;;;26.63;35.06;100524.91;108234;1251;70312;-66
2023/06/07 04:11:09;;;;;;;19.20;10.60;;;;;;;26.76;34.91;100523.36;108310;1255;71416;-67
2023/06/07 04:13:42;;;;;;;17.60;11.60;;;;;;;27.39;34.19;100523.87;108174;1251;60461;-68
2023/06/07 04:16:09;;;;;;;17.20;10.50;;;;;;;27.73;33.79;100524.34;108234;1251;60287;-67
2023/06/07 04:18:40;;;;;;;18.70;10.80;;;;;;;27.84;33.74;100525.04;108310;1251;73806;-66
2023/06/07 04:21:10;;;;;;;16.50;10.60;;;;;;;28.23;32.92;100531.13;108294;1251;68889;-68
2023/06/07 04:23:38;;;;;;;18.50;9.50;;;;;;;27.86;34.28;100548.30;108257;1253;73604;-67
2023/06/07 04:26:08;;;;;;;23.40;10.10;;;;;;;27.81;34.50;100546.83;108271;1251;61637;-67
2023/06/07 04:28:40;;;;;;;14.40;8.80;;;;;;;27.92;34.00;100542.65;108324;1251;59973;-67
2023/06/07 04:31:09;;;;;;;15.70;8.40;;;;;;;27.70;34.52;100540.45;108211;1251;74177;-68
2023/06/07 04:33:40;;;;;;;17.40;8.70;;;;;;;27.88;33.95;100534.00;108165;1251;70334;-68
2023/06/07 04:36:10;;;;;;;18.10;8.70;;;;;;;27.81;34.33;100528.02;108410;1253;72686;-66
2023/06/07 04:38:41;;;;;;;16.00;7.80;;;;;;;28.10;34.03;100533.90;108324;1251;61128;-68
2023/06/07 04:41:32;;;;;;;14.50;7.70;;;;;;;28.15;34.11;100544.38;108208;1251;60326;-67
2023/06/07 04:44:01;;;;;;;18.70;7.90;;;;;;;28.26;34.22;100534.04;108337;1251;72492;-66
2023/06/07 04:46:31;;;;;;;14.30;7.70;;;;;;;28.56;33.87;100526.00;108285;1251;68511;-66
2023/06/07 04:49:00;;;;;;;20.80;8.20;;;;;;;29.11;32.57;100534.39;108249;1252;72649;-67
2023/06/07 04:51:29;;;;;;;13.20;7.60;;;;;;;29.25;32.68;100532.09;108306;1251;59107;-67
2023/06/07 04:54:01;;;;;;;14.70;8.40;;;;;;;29.31;32.48;100530.73;108216;1251;60322;-67
2023/06/07 04:56:32;;;;;;;15.30;8.60;;;;;;;29.57;32.40;100531.70;108286;1251;73831;-67
2023/06/07 04:59:06;;;;;;;13.90;7.60;;;;;;;29.79;32.00;100534.08;108364;1251;70633;-67
2023/06/07 05:01:35;;;;;;;16.60;7.10;;;;;;;29.89;31.94;100531.79;108131;1251;71545;-66
2023/06/07 05:04:03;;;;;;;13.50;7.10;;;;;;;30.04;31.80;100537.16;108357;1251;60267;-67
2023/06/07 05:06:38;;;;;;;14.60;7.00;;;;;;;30.09;31.70;100536.23;108195;1251;60335;-67
2023/06/07 05:09:07;;;;;;;12.60;6.70;;;;;;;30.26;31.25;100540.58;108210;1251;73897;-67
2023/06/07 05:11:35;;;;;;;14.90;6.80;;;;;;;30.97;30.44;100541.52;108294;1251;70029;-69
2023/06/07 05:14:02;;;;;;;14.20;5.90;;;;;;;31.23;29.79;100541.40;108217;1253;72479;-67
2023/06/07 05:16:35;;;;;;;11.40;6.30;;;;;;;31.47;29.19;100534.54;108292;1251;61782;-68
2023/06/07 05:19:08;;;;;;;9.70;5.80;;;;;;;31.83;28.82;100533.33;108226;1251;60403;-68
2023/06/07 05:21:37;;;;;;;14.30;6.00;;;;;;;32.19;27.73;100530.39;108350;1251;72924;-68
2023/06/07 05:24:05;;;;;;;8.50;5.60;;;;;;;32.45;27.66;100534.65;108357;1251;68831;-68
2023/06/07 05:26:33;;;;;;;15.50;5.20;;;;;;;32.68;27.50;100531.33;108296;1254;71445;-67
2023/06/07 05:29:00;;;;;;;12.50;5.50;;;;;;;32.90;27.01;100535.23;108107;1253;60233;-67
2023/06/07 05:31:30;;;;;;;11.70;5.70;;;;;;;32.57;27.65;100537.10;108187;1253;60258;-67
2023/06/07 05:34:00;;;;;;;10.30;4.70;;;;;;;32.81;26.81;100532.79;108296;1253;73901;-67
2023/06/07 05:36:29;;;;;;;10.50;5.00;;;;;;;33.27;26.13;100533.80;108204;1254;70032;-67
2023/06/07 05:39:01;;;;;;;12.20;4.60;;;;;;;33.46;25.57;100533.30;108132;1254;72078;-67
2023/06/07 05:41:29;;;;;;;16.00;4.50;;;;;;;33.77;23.95;100530.05;108056;1254;60517;-68
2023/06/07 05:43:57;;;;;;;11.80;5.00;;;;;;;33.80;23.81;100529.90;108321;1254;60255;-68
2023/06/07 05:46:25;;;;;;;12.10;4.20;;;;;;;34.01;23.23;100531.09;108148;1256;73899;-68
2023/06/07 05:48:57;;;;;;;7.50;3.80;;;;;;;33.94;23.09;100534.61;108214;1254;70319;-68
2023/06/07 05:51:25;;;;;;;11.90;4.20;;;;;;;34.03;23.16;100535.02;108183;1254;72703;-68
2023/06/07 05:53:52;;;;;;;7.70;4.10;;;;;;;34.39;22.69;100534.36;108173;1254;60338;-69
2023/06/07 05:56:21;;;;;;;7.40;3.90;;;;;;;34.61;22.24;100535.45;108187;1252;60323;-67
2023/06/07 05:58:50;;;;;;;10.00;4.60;;;;;;;34.85;21.96;100536.61;108110;1254;63824;-68
2023/06/07 06:01:18;;;;;;;9.40;3.60;;;;;;;35.06;21.93;100538.02;108308;1254;61454;-66
2023/06/07 06:03:45;;;;;;;9.20;4.40;;;;;;;35.43;21.71;100543.46;108201;1253;62561;-70
2023/06/07 06:06:16;;;;;;;8.40;4.10;;;;;;;35.66;21.32;100544.62;108239;1253;60313;-68
2023/06/07 06:08:48;;;;;;;8.50;3.30;;;;;;;35.48;21.05;100546.98;108216;1252;60329;-68
2023/06/07 06:11:16;;;;;;;7.70;3.90;;;;;;;35.60;20.88;100546.71;108155;1252;64949;-68
2023/06/07 06:13:44;;;;;;;7.30;3.90;;;;;;;35.59;20.52;100548.20;108218;1252;61550;-69
2023/06/07 06:16:20;;;;;;;8.70;3.40;;;;;;;35.89;20.29;100546.75;108116;1254;62455;-67
2023/06/07 06:18:48;;;;;;;11.10;3.10;;;;;;;35.80;19.77;100546.81;108298;1253;60536;-68
2023/06/07 06:21:17;;;;;;;8.20;3.00;;;;;;;35.73;19.72;100546.77;108162;1253;60566;-68
2023/06/07 06:23:44;;;;;;;5.40;3.50;;;;;;;35.97;19.84;100546.83;108261;1252;65015;-68
2023/06/07 06:26:12;;;;;;;6.90;3.60;;;;;;;35.91;20.04;100549.33;108247;1256;61856;-68
2023/06/07 06:28:40;;;;;;;7.00;3.30;;;;;;;35.86;20.18;100546.67;108418;1251;63726;-69
2023/06/07 06:31:11;;;;;;;7.30;3.20;;;;;;;36.02;20.22;100542.98;108359;1251;60488;-69
2023/06/07 06:33:38;;;;;;;8.00;3.20;;;;;;;36.33;20.06;100542.92;108380;1256;60443;-69
2023/06/07 06:36:08;;;;;;;11.60;3.50;;;;;;;36.40;19.74;100543.70;108360;1251;65078;-69
2023/06/07 06:38:35;;;;;;;6.50;2.70;;;;;;;36.54;19.55;100546.18;108329;1251;60559;-69
2023/06/07 06:41:04;;;;;;;7.00;3.10;;;;;;;36.45;18.83;100546.25;108253;1254;63869;-68
2023/06/07 06:43:37;;;;;;;5.10;2.40;;;;;;;36.32;18.83;100548.85;108315;1251;60539;-69
2023/06/07 06:46:05;;;;;;;6.30;2.60;;;;;;;36.38;18.77;100548.82;108205;1258;60392;-68
2023/06/07 06:48:35;;;;;;;8.30;2.80;;;;;;;36.43;18.19;100547.06;108238;1251;64882;-68
2023/06/07 06:51:03;;;;;;;8.50;2.50;;;;;;;36.46;18.29;100547.31;108310;1251;61459;-69
2023/06/07 06:53:30;;;;;;;6.40;2.80;;;;;;;36.65;18.36;100546.29;108258;1251;62467;-69
2023/06/07 06:56:01;;;;;;;7.60;2.80;;;;;;;36.93;18.33;100548.39;108242;1254;60411;-68
2023/06/07 06:58:34;;;;;;;8.80;2.40;;;;;;;37.16;18.10;100548.77;108329;1251;60405;-69
2023/06/07 07:01:02;;;;;;;8.20;2.70;;;;;;;37.45;17.96;100550.05;108209;1251;64957;-67
2023/06/07 07:03:30;;;;;;;5.30;2.60;;;;;;;37.81;17.97;100549.96;108194;1251;156990;-69
2023/06/07 07:06:54;;;;;;;7.80;2.80;;;;;;;35.75;19.29;100550.16;104907;1289;600414;-68
2023/06/07 07:09:26;;;;;;;10.60;2.80;;;;;;;37.36;17.86;100553.42;107345;1266;59238;-68
2023/06/07 07:11:54;;;;;;;6.30;2.70;;;;;;;37.78;17.59;100551.52;108027;1254;59013;-69
2023/06/07 07:14:21;;;;;;;3.20;2.50;;;;;;;38.12;17.33;100548.39;108034;1253;62111;-69
2023/06/07 07:16:48;;;;;;;8.10;2.80;;;;;;;38.55;16.91;100551.55;108149;1254;60104;-69
2023/06/07 07:19:18;;;;;;;8.50;2.90;;;;;;;38.73;16.82;100552.38;108083;1254;63764;-69
2023/06/07 07:21:48;;;;;;;5.80;2.60;;;;;;;38.59;16.76;100554.21;108035;1253;363683;-68
2023/06/07 07:24:15;;;;;;;10.30;2.70;;;;;;;38.49;17.20;100553.06;108220;1253;62179;-70
2023/06/07 07:26:46;;;;;;;5.60;2.40;;;;;;;38.37;17.20;100555.30;108137;1253;62279;-68
2023/06/07 07:29:13;;;;;;;11.00;2.90;;;;;;;38.43;17.33;100556.59;108161;1253;60272;-69
2023/06/07 07:31:41;;;;;;;3.80;2.90;;;;;;;38.51;17.54;100558.83;108154;1253;62507;-68
2023/06/07 07:34:10;;;;;;;6.20;3.50;;;;;;;38.47;17.89;100561.03;108144;1254;59598;-68
2023/06/07 07:36:38;;;;;;;5.50;3.00;;;;;;;38.71;17.52;100560.91;108177;1252;59590;-69
2023/06/07 07:39:11;;;;;;;8.50;3.10;;;;;;;38.26;17.62;100564.62;108172;1254;62980;-69
2023/06/07 07:41:40;;;;;;;6.00;2.50;;;;;;;37.93;17.61;100566.05;108166;1253;61496;-68
2023/06/07 07:44:07;;;;;;;3.90;2.50;;;;;;;37.85;17.64;100561.50;108176;1253;62479;-69
2023/06/07 07:46:35;;;;;;;5.80;2.50;;;;;;;38.01;17.33;100564.92;108064;1254;59561;-69
2023/06/07 07:49:03;;;;;;;7.60;2.70;;;;;;;38.44;16.94;100561.66;108113;1252;59630;-69
2023/06/07 07:51:32;;;;;;;6.00;2.90;;;;;;;38.71;16.73;100564.48;108098;1253;62837;-69
2023/06/07 07:54:00;;;;;;;5.10;2.80;;;;;;;38.71;16.94;100566.63;108130;1254;61397;-68
2023/06/07 07:56:27;;;;;;;8.40;2.50;;;;;;;38.66;16.93;100565.73;108178;1252;62545;-68
2023/06/07 07:58:59;;;;;;;11.00;2.80;;;;;;;38.97;16.79;100569.45;108190;1253;59678;-69
2023/06/07 08:01:27;;;;;;;6.80;2.80;;;;;;;38.95;16.97;100569.06;108233;1253;59387;-69
2023/06/07 08:03:59;;;;;;;5.90;3.20;;;;;;;38.95;17.08;100572.54;108217;1252;64128;-69
2023/06/07 08:06:26;;;;;;;7.80;2.80;;;;;;;39.13;16.81;100571.73;108083;1257;60127;-69
2023/06/07 08:08:53;;;;;;;6.80;2.70;;;;;;;39.02;16.94;100572.33;108081;1254;74356;-70
2023/06/07 08:11:21;;;;;;;6.70;2.90;;;;;;;39.11;16.65;100571.52;108122;1254;59599;-69
2023/06/07 08:13:51;;;;;;;7.10;3.30;;;;;;;39.25;16.60;100571.56;108103;1254;59102;-69
2023/06/07 08:16:18;;;;;;;6.90;3.00;;;;;;;39.62;16.59;100572.89;108041;1254;62886;-68
2023/06/07 08:18:49;;;;;;;8.10;2.80;;;;;;;39.83;16.25;100574.04;108029;1253;61476;-69
2023/06/07 08:21:19;;;;;;;6.90;2.60;;;;;;;39.99;15.84;100572.30;107996;1254;63899;-69
2023/06/07 08:23:46;;;;;;;4.60;2.50;;;;;;;40.24;15.92;100573.09;108007;1254;59107;-69
2023/06/07 08:26:16;;;;;;;6.70;2.50;;;;;;;40.55;15.25;100575.09;107959;1254;59875;-69
2023/06/07 08:28:43;;;;;;;5.70;2.00;;;;;;;40.72;14.64;100571.70;108008;1254;62880;-69
2023/06/07 08:31:11;;;;;;;6.10;2.20;;;;;;;40.70;14.25;100572.89;108017;1254;61358;-69
2023/06/07 08:33:44;;;;;;;8.50;2.50;;;;;;;40.68;14.42;100568.64;108007;1254;65779;-69
2023/06/07 08:36:11;;;;;;;4.80;2.60;;;;;;;40.73;14.24;100568.53;108025;1253;60060;-69
2023/06/07 08:38:41;;;;;;;4.60;2.20;;;;;;;40.87;14.00;100569.35;108037;1258;59125;-69
2023/06/07 08:41:09;;;;;;;6.40;2.50;;;;;;;41.11;13.76;100571.48;108079;1253;64172;-67
2023/06/07 08:43:38;;;;;;;5.00;2.00;;;;;;;41.16;13.45;100569.34;108031;1253;60293;-69
2023/06/07 08:46:08;;;;;;;12.20;2.40;;;;;;;41.17;13.39;100568.93;107986;1254;62637;-70
2023/06/07 08:48:35;;;;;;;4.60;1.90;;;;;;;41.34;13.61;100568.52;107999;1254;59613;-69
2023/06/07 08:51:06;;;;;;;4.00;1.90;;;;;;;41.69;13.78;100568.00;107915;1254;58400;-69
2023/06/07 08:53:38;;;;;;;9.60;2.60;;;;;;;41.92;13.38;100569.24;107930;1254;64092;-69
2023/06/07 08:56:06;;;;;;;7.10;2.50;;;;;;;42.00;13.25;100568.43;107911;1254;60250;-69
2023/06/07 08:58:37;;;;;;;6.50;2.30;;;;;;;42.16;13.60;100568.05;107865;1254;73478;-69
2023/06/07 09:01:05;;;;;;;4.80;2.60;;;;;;;42.48;13.62;100572.98;108009;1254;59687;-69
2023/06/07 09:03:37;;;;;;;;;;;;;;;42.40;13.34;100571.16;107952;1254;59599;-69
2023/06/07 09:06:04;;;;;;;5.20;2.30;;;;;;;41.97;13.76;100572.75;108002;1253;62937;-69
2023/06/07 09:08:35;;;;;;;4.90;2.80;;;;;;;41.62;13.93;100572.27;108046;1253;60311;-69
2023/06/07 09:11:06;;;;;;;7.50;2.80;;;;;;;41.50;14.09;100572.65;108141;1252;62493;-69
2023/06/07 09:13:33;;;;;;;6.90;2.40;;;;;;;41.26;14.23;100572.23;108065;1252;59522;-69
2023/06/07 09:16:04;;;;;;;4.40;2.60;;;;;;;41.16;14.44;100572.67;108067;1253;59205;-69
2023/06/07 09:18:45;;;;;;;6.90;2.50;;;;;;;41.62;14.20;100569.61;108067;1253;74050;-69
2023/06/07 09:21:29;;;;;;;7.60;2.60;;;;;;;41.82;14.27;100568.77;108092;1252;60161;-67
2023/06/07 09:23:59;;;;;;;5.60;2.50;;;;;;;41.89;14.34;100568.42;108040;1254;62635;-68
2023/06/07 09:26:37;;;;;;;7.00;2.60;;;;;;;42.00;14.35;100570.39;108016;1257;59481;-69
2023/06/07 09:29:07;;;;;;;7.20;2.90;;;;;;;42.43;14.25;100566.84;108080;1253;59538;-69
2023/06/07 09:31:43;;;;;;;5.20;2.90;;;;;;;42.41;14.08;100566.57;108026;1253;64156;-69
2023/06/07 09:34:24;;;;;;;3.30;2.30;;;;;;;42.38;13.81;100566.32;108087;1253;61470;-69
2023/06/07 09:36:53;;;;;;;9.70;2.70;;;;;;;42.27;13.97;100565.77;108120;1254;62444;-69
2023/06/07 09:39:26;;;;;;;6.90;2.70;;;;;;;42.03;14.07;100571.46;108051;1253;59611;-69
2023/06/07 09:41:55;;;;;;;5.70;2.60;;;;;;;42.10;14.19;100570.85;108126;1253;59588;-69
2023/06/07 09:44:26;;;;;;;6.00;2.50;;;;;;;41.93;14.27;100567.98;108293;1253;64201;-69
2023/06/07 09:46:56;;;;;;;8.40;3.10;;;;;;;41.98;14.67;100570.73;108032;1253;61398;-69
2023/06/07 09:49:31;;;;;;;9.10;2.80;;;;;;;42.14;14.62;100570.13;108116;1253;63744;-69
2023/06/07 09:52:02;;;;;;;4.80;2.70;;;;;;;42.08;14.55;100572.05;108106;1253;59500;-69
2023/06/07 09:54:36;;;;;;;10.40;2.70;;;;;;;41.91;14.63;100570.52;108205;1254;59056;-70
2023/06/07 09:57:11;;;;;;;8.90;3.50;;;;;;;41.68;14.37;100568.77;108166;1254;64145;-69
2023/06/07 09:59:38;;;;;;;10.70;3.00;;;;;;;41.42;14.76;100564.67;108101;1254;61764;-69
2023/06/07 10:02:35;;;;;;;7.70;3.00;;;;;;;41.51;14.78;100566.92;108110;1253;62521;-69
2023/06/07 10:05:07;;;;;;;4.80;2.40;;;;;;;41.64;14.56;100565.77;108123;1253;59711;-69
2023/06/07 10:07:42;;;;;;;7.60;3.00;;;;;;;41.56;14.52;100568.89;108096;1253;59525;-69
2023/06/07 10:10:17;;;;;;;9.30;3.20;;;;;;;41.74;14.84;100565.83;108040;1253;62930;-69
2023/06/07 10:12:50;;;;;;;7.00;2.90;;;;;;;42.04;15.10;100564.73;108035;1252;60070;-69
2023/06/07 10:15:23;;;;;;;5.60;2.70;;;;;;;42.02;15.00;100568.13;108029;1254;62573;-69
2023/06/07 10:18:12;;;;;;;11.10;3.30;;;;;;;42.13;14.91;100562.14;108136;1253;59615;-68
2023/06/07 10:20:57;;;;;;;5.70;2.40;;;;;;;41.45;15.35;100561.17;108126;1253;59503;-70
2023/06/07 10:23:44;;;;;;;8.80;2.80;;;;;;;41.20;15.16;100560.81;108158;1253;64310;-69
2023/06/07 10:26:30;;;;;;;8.30;2.80;;;;;;;41.18;15.26;100558.45;108173;1254;60385;-68
2023/06/07 10:29:08;;;;;;;7.80;3.20;;;;;;;41.27;15.20;100557.99;108097;1254;63726;-69
2023/06/07 10:31:47;;;;;;;7.70;2.80;;;;;;;41.15;15.47;100554.73;108122;1254;59634;-69
2023/06/07 10:34:17;;;;;;;5.30;2.90;;;;;;;41.87;14.96;100554.67;108082;1254;59641;-68
2023/06/07 10:36:44;;;;;;;7.30;2.80;;;;;;;41.90;14.75;100553.62;108101;1252;64466;-69
2023/06/07 10:39:11;;;;;;;4.80;2.50;;;;;;;41.51;14.92;100551.67;108084;1254;61783;-69
2023/06/07 10:41:39;;;;;;;11.90;2.60;;;;;;;41.01;15.24;100556.73;108045;1253;62446;-68
2023/06/07 10:44:06;;;;;;;10.30;2.90;;;;;;;40.42;15.44;100555.94;108072;1254;59723;-69
2023/06/07 10:46:34;;;;;;;9.80;3.00;;;;;;;40.62;15.39;100553.83;108067;1256;59467;-68
2023/06/07 10:49:04;;;;;;;9.40;3.00;;;;;;;40.94;15.11;100553.64;108099;1253;62872;-69
2023/06/07 10:51:41;;;;;;;4.10;2.80;;;;;;;40.60;15.44;100556.54;108087;1254;60377;-69
2023/06/07 10:54:09;;;;;;;5.90;2.90;;;;;;;40.39;15.66;100557.05;108057;1254;62512;-69
2023/06/07 10:56:37;;;;;;;7.10;3.10;;;;;;;40.55;15.23;100550.48;108003;1253;59800;-70
2023/06/07 10:59:15;;;;;;;6.40;2.70;;;;;;;40.45;15.03;100551.44;108119;1253;59524;-69
2023/06/07 11:01:46;;;;;;;7.20;2.50;;;;;;;40.32;15.26;100553.92;108110;1253;64640;-68
2023/06/07 11:04:59;;;;;;;16.40;3.40;;;;;;;40.17;15.79;100547.84;108128;1253;60784;-69
2023/06/07 11:07:30;;;;;;;4.70;2.40;;;;;;;39.47;15.79;100548.24;108058;1254;62483;-71
2023/06/07 11:10:02;;;;;;;6.40;2.60;;;;;;;39.20;15.96;100545.31;108218;1254;59528;-69
2023/06/07 11:12:35;;;;;;;7.70;2.60;;;;;;;39.34;15.98;100548.31;108105;1253;59520;-68
2023/06/07 11:15:17;;;;;;;4.70;2.70;;;;;;;39.69;15.70;100549.80;108100;1254;64165;-69
2023/06/07 11:17:59;;;;;;;9.20;2.60;;;;;;;39.15;15.85;100546.91;108049;1253;61633;-69
2023/06/07 11:20:36;;;;;;;9.50;3.00;;;;;;;38.92;16.07;100541.83;108025;1254;63739;-69
2023/06/07 11:23:21;;;;;;;8.60;2.60;;;;;;;39.25;15.79;100537.29;108060;1254;60414;-70
2023/06/07 11:25:54;;;;;;;7.70;2.90;;;;;;;39.16;15.98;100538.98;108113;1254;59211;-69
2023/06/07 11:28:31;;;;;;;10.80;2.70;;;;;;;38.32;16.23;100536.23;108097;1253;65027;-69